Terminal Aerodrome Forecast
Issued by NWS

Home | Current Version | Previous Version | Text Only | Print | Product List | Glossary On
Versions: 1 2 3 4 5 6 7 8 9 10 11 12
000
FTUS42 TJSJ 291750
TAFJBQ
TAF
TJBQ 291750Z 2918/3018 VRB15G22KT P6SM VCTS BKN022CB OVC040
     FM300000 08003KT P6SM VCSH OVC050
     FM301500 06008KT P6SM VCSH SCT020 BKN250
      AMD NOT SKED 3002/3011=

USA.gov is the U.S. government's official web portal to all federal, state and local government web resources and services.